sensor_id;sensor_type;location;lat;lon;timestamp;P1;durP1;ratioP1;P2;durP2;ratioP2
40449;SDS011;41787;53.570;10.032;2022-08-21T00:00:27;7.53;;;2.83;;
40449;SDS011;41787;53.570;10.032;2022-08-21T00:02:55;7.35;;;2.25;;
40449;SDS011;41787;53.570;10.032;2022-08-21T00:05:22;6.38;;;3.17;;
40449;SDS011;41787;53.570;10.032;2022-08-21T00:07:48;9.48;;;2.88;;
40449;SDS011;41787;53.570;10.032;2022-08-21T00:10:14;11.27;;;3.10;;
40449;SDS011;41787;53.570;10.032;2022-08-21T00:12:41;6.03;;;2.80;;
40449;SDS011;41787;53.570;10.032;2022-08-21T00:15:08;5.43;;;2.97;;
40449;SDS011;41787;53.570;10.032;2022-08-21T00:17:34;10.32;;;3.00;;
40449;SDS011;41787;53.570;10.032;2022-08-21T00:20:00;10.68;;;2.95;;
40449;SDS011;41787;53.570;10.032;2022-08-21T00:22:26;8.98;;;2.85;;
40449;SDS011;41787;53.570;10.032;2022-08-21T00:24:52;7.03;;;2.50;;
40449;SDS011;41787;53.570;10.032;2022-08-21T00:27:18;9.25;;;2.83;;
40449;SDS011;41787;53.570;10.032;2022-08-21T00:29:44;8.25;;;2.78;;
40449;SDS011;41787;53.570;10.032;2022-08-21T00:32:10;6.70;;;2.85;;
40449;SDS011;41787;53.570;10.032;2022-08-21T00:34:36;8.10;;;2.88;;
40449;SDS011;41787;53.570;10.032;2022-08-21T00:37:02;7.25;;;3.00;;
40449;SDS011;41787;53.570;10.032;2022-08-21T00:39:29;9.23;;;3.10;;
40449;SDS011;41787;53.570;10.032;2022-08-21T00:41:55;10.57;;;3.08;;
40449;SDS011;41787;53.570;10.032;2022-08-21T00:44:21;10.80;;;3.60;;
40449;SDS011;41787;53.570;10.032;2022-08-21T00:46:46;10.48;;;3.42;;
40449;SDS011;41787;53.570;10.032;2022-08-21T00:49:13;10.40;;;3.60;;
40449;SDS011;41787;53.570;10.032;2022-08-21T00:51:42;9.65;;;3.53;;
40449;SDS011;41787;53.570;10.032;2022-08-21T00:54:10;7.88;;;3.40;;
40449;SDS011;41787;53.570;10.032;2022-08-21T00:56:37;7.93;;;3.63;;
40449;SDS011;41787;53.570;10.032;2022-08-21T00:59:03;8.13;;;3.75;;
40449;SDS011;41787;53.570;10.032;2022-08-21T01:01:29;8.55;;;3.92;;
40449;SDS011;41787;53.570;10.032;2022-08-21T01:03:55;12.70;;;4.10;;
40449;SDS011;41787;53.570;10.032;2022-08-21T01:06:21;8.35;;;4.35;;
40449;SDS011;41787;53.570;10.032;2022-08-21T01:08:47;9.07;;;4.13;;
40449;SDS011;41787;53.570;10.032;2022-08-21T01:11:14;11.18;;;3.97;;
40449;SDS011;41787;53.570;10.032;2022-08-21T01:13:40;10.13;;;3.80;;
40449;SDS011;41787;53.570;10.032;2022-08-21T01:18:36;8.55;;;3.53;;
40449;SDS011;41787;53.570;10.032;2022-08-21T01:21:06;11.93;;;4.47;;
40449;SDS011;41787;53.570;10.032;2022-08-21T01:23:34;12.02;;;3.63;;
40449;SDS011;41787;53.570;10.032;2022-08-21T01:26:00;8.35;;;3.65;;
40449;SDS011;41787;53.570;10.032;2022-08-21T01:28:26;13.50;;;3.53;;
40449;SDS011;41787;53.570;10.032;2022-08-21T01:30:55;8.52;;;3.80;;
40449;SDS011;41787;53.570;10.032;2022-08-21T01:33:22;8.77;;;3.95;;
40449;SDS011;41787;53.570;10.032;2022-08-21T01:35:48;8.43;;;3.50;;
40449;SDS011;41787;53.570;10.032;2022-08-21T01:38:14;7.97;;;3.90;;
40449;SDS011;41787;53.570;10.032;2022-08-21T01:40:40;12.32;;;4.10;;
40449;SDS011;41787;53.570;10.032;2022-08-21T01:43:07;11.82;;;3.85;;
40449;SDS011;41787;53.570;10.032;2022-08-21T01:45:36;9.77;;;4.38;;
40449;SDS011;41787;53.570;10.032;2022-08-21T01:48:02;9.80;;;3.80;;
40449;SDS011;41787;53.570;10.032;2022-08-21T01:50:28;9.45;;;4.00;;
40449;SDS011;41787;53.570;10.032;2022-08-21T01:52:54;12.10;;;4.18;;
40449;SDS011;41787;53.570;10.032;2022-08-21T01:55:20;12.45;;;4.07;;
40449;SDS011;41787;53.570;10.032;2022-08-21T01:57:47;8.02;;;3.90;;
40449;SDS011;41787;53.570;10.032;2022-08-21T02:00:14;11.77;;;4.35;;
40449;SDS011;41787;53.570;10.032;2022-08-21T02:02:40;15.13;;;4.40;;
40449;SDS011;41787;53.570;10.032;2022-08-21T02:05:07;12.60;;;3.95;;
40449;SDS011;41787;53.570;10.032;2022-08-21T02:07:38;8.13;;;3.70;;
40449;SDS011;41787;53.570;10.032;2022-08-21T02:10:05;11.38;;;3.83;;
40449;SDS011;41787;53.570;10.032;2022-08-21T02:12:31;11.50;;;3.65;;
40449;SDS011;41787;53.570;10.032;2022-08-21T02:14:57;11.85;;;3.85;;
40449;SDS011;41787;53.570;10.032;2022-08-21T02:17:23;8.43;;;3.30;;
40449;SDS011;41787;53.570;10.032;2022-08-21T02:19:49;9.43;;;3.60;;
40449;SDS011;41787;53.570;10.032;2022-08-21T02:22:15;8.80;;;3.47;;
40449;SDS011;41787;53.570;10.032;2022-08-21T02:24:41;12.73;;;4.45;;
40449;SDS011;41787;53.570;10.032;2022-08-21T02:27:07;11.00;;;4.00;;
40449;SDS011;41787;53.570;10.032;2022-08-21T02:29:33;15.23;;;3.90;;
40449;SDS011;41787;53.570;10.032;2022-08-21T02:31:59;9.27;;;4.13;;
40449;SDS011;41787;53.570;10.032;2022-08-21T02:34:25;13.30;;;3.50;;
40449;SDS011;41787;53.570;10.032;2022-08-21T02:36:51;7.00;;;3.65;;
40449;SDS011;41787;53.570;10.032;2022-08-21T02:39:17;10.45;;;3.30;;
40449;SDS011;41787;53.570;10.032;2022-08-21T02:41:43;8.27;;;3.53;;
40449;SDS011;41787;53.570;10.032;2022-08-21T02:44:09;8.07;;;3.38;;
40449;SDS011;41787;53.570;10.032;2022-08-21T02:46:35;7.70;;;3.55;;
40449;SDS011;41787;53.570;10.032;2022-08-21T02:49:01;9.20;;;3.53;;
40449;SDS011;41787;53.570;10.032;2022-08-21T02:51:26;10.77;;;3.30;;
40449;SDS011;41787;53.570;10.032;2022-08-21T02:53:52;7.55;;;3.35;;
40449;SDS011;41787;53.570;10.032;2022-08-21T02:56:19;10.38;;;3.70;;
40449;SDS011;41787;53.570;10.032;2022-08-21T02:58:47;8.52;;;3.25;;
40449;SDS011;41787;53.570;10.032;2022-08-21T03:01:14;7.70;;;3.60;;
40449;SDS011;41787;53.570;10.032;2022-08-21T03:03:41;9.55;;;3.20;;
40449;SDS011;41787;53.570;10.032;2022-08-21T03:06:08;11.18;;;3.30;;
40449;SDS011;41787;53.570;10.032;2022-08-21T03:08:34;5.95;;;3.00;;
40449;SDS011;41787;53.570;10.032;2022-08-21T03:11:01;7.63;;;3.17;;
40449;SDS011;41787;53.570;10.032;2022-08-21T03:13:27;13.93;;;3.60;;
40449;SDS011;41787;53.570;10.032;2022-08-21T03:15:53;6.20;;;3.08;;
40449;SDS011;41787;53.570;10.032;2022-08-21T03:18:20;9.82;;;3.30;;
40449;SDS011;41787;53.570;10.032;2022-08-21T03:20:46;7.25;;;2.95;;
40449;SDS011;41787;53.570;10.032;2022-08-21T03:23:12;11.00;;;3.15;;
40449;SDS011;41787;53.570;10.032;2022-08-21T03:25:39;7.75;;;2.95;;
40449;SDS011;41787;53.570;10.032;2022-08-21T03:28:05;8.82;;;3.67;;
40449;SDS011;41787;53.570;10.032;2022-08-21T03:30:31;7.43;;;3.33;;
40449;SDS011;41787;53.570;10.032;2022-08-21T03:32:58;6.75;;;3.45;;
40449;SDS011;41787;53.570;10.032;2022-08-21T03:35:24;14.70;;;3.10;;
40449;SDS011;41787;53.570;10.032;2022-08-21T03:37:50;5.45;;;2.75;;
40449;SDS011;41787;53.570;10.032;2022-08-21T03:40:17;11.10;;;3.03;;
40449;SDS011;41787;53.570;10.032;2022-08-21T03:42:43;8.98;;;3.45;;
40449;SDS011;41787;53.570;10.032;2022-08-21T03:45:12;9.82;;;3.08;;
40449;SDS011;41787;53.570;10.032;2022-08-21T03:47:38;6.75;;;2.90;;
40449;SDS011;41787;53.570;10.032;2022-08-21T03:50:04;5.85;;;3.05;;
40449;SDS011;41787;53.570;10.032;2022-08-21T03:52:30;9.68;;;3.03;;
40449;SDS011;41787;53.570;10.032;2022-08-21T03:54:56;7.88;;;3.10;;
40449;SDS011;41787;53.570;10.032;2022-08-21T03:57:22;8.60;;;3.08;;
40449;SDS011;41787;53.570;10.032;2022-08-21T03:59:48;6.93;;;3.38;;
40449;SDS011;41787;53.570;10.032;2022-08-21T04:02:15;6.75;;;3.30;;
40449;SDS011;41787;53.570;10.032;2022-08-21T04:04:42;7.43;;;3.42;;
40449;SDS011;41787;53.570;10.032;2022-08-21T04:07:08;9.05;;;3.40;;
40449;SDS011;41787;53.570;10.032;2022-08-21T04:09:34;7.15;;;3.38;;
40449;SDS011;41787;53.570;10.032;2022-08-21T04:12:00;9.15;;;3.22;;
40449;SDS011;41787;53.570;10.032;2022-08-21T04:14:27;8.00;;;3.05;;
40449;SDS011;41787;53.570;10.032;2022-08-21T04:16:53;5.95;;;3.13;;
40449;SDS011;41787;53.570;10.032;2022-08-21T04:19:19;6.55;;;3.25;;
40449;SDS011;41787;53.570;10.032;2022-08-21T04:21:45;6.72;;;3.25;;
40449;SDS011;41787;53.570;10.032;2022-08-21T04:24:11;12.15;;;3.17;;
40449;SDS011;41787;53.570;10.032;2022-08-21T04:26:37;7.18;;;3.38;;
40449;SDS011;41787;53.570;10.032;2022-08-21T04:29:04;9.48;;;3.30;;
40449;SDS011;41787;53.570;10.032;2022-08-21T04:31:33;6.25;;;2.80;;
40449;SDS011;41787;53.570;10.032;2022-08-21T04:33:59;8.13;;;3.13;;
40449;SDS011;41787;53.570;10.032;2022-08-21T04:36:25;6.95;;;2.72;;
40449;SDS011;41787;53.570;10.032;2022-08-21T04:38:51;10.98;;;3.13;;
40449;SDS011;41787;53.570;10.032;2022-08-21T04:41:17;10.40;;;3.50;;
40449;SDS011;41787;53.570;10.032;2022-08-21T04:43:43;8.30;;;3.00;;
40449;SDS011;41787;53.570;10.032;2022-08-21T04:46:09;9.02;;;3.30;;
40449;SDS011;41787;53.570;10.032;2022-08-21T04:48:35;10.30;;;2.88;;
40449;SDS011;41787;53.570;10.032;2022-08-21T04:53:34;5.85;;;2.90;;
40449;SDS011;41787;53.570;10.032;2022-08-21T04:56:04;4.43;;;2.42;;
40449;SDS011;41787;53.570;10.032;2022-08-21T04:58:33;6.22;;;2.92;;
40449;SDS011;41787;53.570;10.032;2022-08-21T05:00:59;6.85;;;3.03;;
40449;SDS011;41787;53.570;10.032;2022-08-21T05:03:25;9.07;;;3.17;;
40449;SDS011;41787;53.570;10.032;2022-08-21T05:05:52;8.45;;;2.83;;
40449;SDS011;41787;53.570;10.032;2022-08-21T05:08:19;5.38;;;2.63;;
40449;SDS011;41787;53.570;10.032;2022-08-21T05:10:48;7.65;;;3.20;;
40449;SDS011;41787;53.570;10.032;2022-08-21T05:13:14;8.93;;;2.97;;
40449;SDS011;41787;53.570;10.032;2022-08-21T05:15:40;7.57;;;2.83;;
40449;SDS011;41787;53.570;10.032;2022-08-21T05:18:07;7.45;;;3.38;;
40449;SDS011;41787;53.570;10.032;2022-08-21T05:20:33;7.03;;;3.03;;
40449;SDS011;41787;53.570;10.032;2022-08-21T05:22:59;7.35;;;2.78;;
40449;SDS011;41787;53.570;10.032;2022-08-21T05:25:26;6.10;;;3.03;;
40449;SDS011;41787;53.570;10.032;2022-08-21T05:27:52;6.38;;;3.03;;
40449;SDS011;41787;53.570;10.032;2022-08-21T05:30:18;4.30;;;2.80;;
40449;SDS011;41787;53.570;10.032;2022-08-21T05:32:45;6.07;;;2.63;;
40449;SDS011;41787;53.570;10.032;2022-08-21T05:35:11;6.75;;;2.75;;
40449;SDS011;41787;53.570;10.032;2022-08-21T05:37:37;7.78;;;3.05;;
40449;SDS011;41787;53.570;10.032;2022-08-21T05:40:03;11.65;;;2.80;;
40449;SDS011;41787;53.570;10.032;2022-08-21T05:42:30;7.38;;;2.58;;
40449;SDS011;41787;53.570;10.032;2022-08-21T05:44:56;10.18;;;2.47;;
40449;SDS011;41787;53.570;10.032;2022-08-21T05:47:22;5.88;;;2.28;;
40449;SDS011;41787;53.570;10.032;2022-08-21T05:49:48;8.35;;;2.28;;
40449;SDS011;41787;53.570;10.032;2022-08-21T05:52:18;5.15;;;2.63;;
40449;SDS011;41787;53.570;10.032;2022-08-21T05:54:44;6.65;;;2.85;;
40449;SDS011;41787;53.570;10.032;2022-08-21T05:57:10;10.05;;;2.70;;
40449;SDS011;41787;53.570;10.032;2022-08-21T05:59:36;4.78;;;2.08;;
40449;SDS011;41787;53.570;10.032;2022-08-21T06:02:02;9.50;;;1.95;;
40449;SDS011;41787;53.570;10.032;2022-08-21T06:04:29;8.40;;;2.50;;
40449;SDS011;41787;53.570;10.032;2022-08-21T06:06:55;10.90;;;2.50;;
40449;SDS011;41787;53.570;10.032;2022-08-21T06:09:21;7.10;;;2.10;;
40449;SDS011;41787;53.570;10.032;2022-08-21T06:11:47;4.63;;;2.10;;
40449;SDS011;41787;53.570;10.032;2022-08-21T06:14:16;4.82;;;2.05;;
40449;SDS011;41787;53.570;10.032;2022-08-21T06:16:41;6.70;;;2.40;;
40449;SDS011;41787;53.570;10.032;2022-08-21T06:19:07;7.70;;;2.00;;
40449;SDS011;41787;53.570;10.032;2022-08-21T06:21:33;11.68;;;2.00;;
40449;SDS011;41787;53.570;10.032;2022-08-21T06:23:59;5.57;;;2.25;;
40449;SDS011;41787;53.570;10.032;2022-08-21T06:26:25;4.03;;;1.75;;
40449;SDS011;41787;53.570;10.032;2022-08-21T06:28:52;9.15;;;2.40;;
40449;SDS011;41787;53.570;10.032;2022-08-21T06:31:22;6.50;;;2.05;;
40449;SDS011;41787;53.570;10.032;2022-08-21T06:36:15;5.85;;;2.03;;
40449;SDS011;41787;53.570;10.032;2022-08-21T06:38:41;6.75;;;1.95;;
40449;SDS011;41787;53.570;10.032;2022-08-21T06:41:07;6.40;;;2.28;;
40449;SDS011;41787;53.570;10.032;2022-08-21T06:43:33;5.57;;;2.10;;
40449;SDS011;41787;53.570;10.032;2022-08-21T06:45:59;7.90;;;2.05;;
40449;SDS011;41787;53.570;10.032;2022-08-21T06:48:25;5.82;;;1.98;;
40449;SDS011;41787;53.570;10.032;2022-08-21T06:50:51;5.53;;;1.88;;
40449;SDS011;41787;53.570;10.032;2022-08-21T06:53:18;4.32;;;1.80;;
40449;SDS011;41787;53.570;10.032;2022-08-21T06:55:45;4.53;;;1.80;;
40449;SDS011;41787;53.570;10.032;2022-08-21T06:58:11;6.40;;;1.48;;
40449;SDS011;41787;53.570;10.032;2022-08-21T07:00:43;5.97;;;1.52;;
40449;SDS011;41787;53.570;10.032;2022-08-21T07:03:25;6.72;;;1.80;;
40449;SDS011;41787;53.570;10.032;2022-08-21T07:05:52;6.00;;;1.75;;
40449;SDS011;41787;53.570;10.032;2022-08-21T07:08:18;6.53;;;1.65;;
40449;SDS011;41787;53.570;10.032;2022-08-21T07:10:44;4.38;;;2.30;;
40449;SDS011;41787;53.570;10.032;2022-08-21T07:13:10;4.45;;;1.73;;
40449;SDS011;41787;53.570;10.032;2022-08-21T07:15:36;6.35;;;1.80;;
40449;SDS011;41787;53.570;10.032;2022-08-21T07:18:02;6.78;;;1.80;;
40449;SDS011;41787;53.570;10.032;2022-08-21T07:20:29;9.52;;;1.52;;
40449;SDS011;41787;53.570;10.032;2022-08-21T07:22:55;4.28;;;1.70;;
40449;SDS011;41787;53.570;10.032;2022-08-21T07:25:22;7.13;;;2.05;;
40449;SDS011;41787;53.570;10.032;2022-08-21T07:27:48;5.60;;;1.92;;
40449;SDS011;41787;53.570;10.032;2022-08-21T07:30:14;6.78;;;2.03;;
40449;SDS011;41787;53.570;10.032;2022-08-21T07:32:40;6.38;;;1.70;;
40449;SDS011;41787;53.570;10.032;2022-08-21T07:35:06;9.80;;;1.90;;
40449;SDS011;41787;53.570;10.032;2022-08-21T07:37:32;6.57;;;2.30;;
40449;SDS011;41787;53.570;10.032;2022-08-21T07:39:58;6.45;;;1.50;;
40449;SDS011;41787;53.570;10.032;2022-08-21T07:42:24;6.43;;;1.88;;
40449;SDS011;41787;53.570;10.032;2022-08-21T07:44:50;4.90;;;1.80;;
40449;SDS011;41787;53.570;10.032;2022-08-21T07:47:16;4.25;;;1.60;;
40449;SDS011;41787;53.570;10.032;2022-08-21T07:49:42;6.35;;;1.73;;
40449;SDS011;41787;53.570;10.032;2022-08-21T07:52:08;5.55;;;2.08;;
40449;SDS011;41787;53.570;10.032;2022-08-21T07:54:34;6.40;;;1.80;;
40449;SDS011;41787;53.570;10.032;2022-08-21T07:57:00;6.35;;;1.95;;
40449;SDS011;41787;53.570;10.032;2022-08-21T07:59:26;4.22;;;1.58;;
40449;SDS011;41787;53.570;10.032;2022-08-21T08:01:52;8.88;;;1.65;;
40449;SDS011;41787;53.570;10.032;2022-08-21T08:04:18;7.13;;;2.13;;
40449;SDS011;41787;53.570;10.032;2022-08-21T08:06:44;6.20;;;1.83;;
40449;SDS011;41787;53.570;10.032;2022-08-21T08:09:10;9.07;;;1.75;;
40449;SDS011;41787;53.570;10.032;2022-08-21T08:11:36;4.70;;;1.77;;
40449;SDS011;41787;53.570;10.032;2022-08-21T08:14:04;4.55;;;1.40;;
40449;SDS011;41787;53.570;10.032;2022-08-21T08:16:30;8.88;;;2.20;;
40449;SDS011;41787;53.570;10.032;2022-08-21T08:18:56;5.30;;;1.42;;
40449;SDS011;41787;53.570;10.032;2022-08-21T08:21:22;4.40;;;1.48;;
40449;SDS011;41787;53.570;10.032;2022-08-21T08:23:48;5.05;;;1.60;;
40449;SDS011;41787;53.570;10.032;2022-08-21T08:26:15;4.47;;;1.27;;
40449;SDS011;41787;53.570;10.032;2022-08-21T08:28:41;5.93;;;1.98;;
40449;SDS011;41787;53.570;10.032;2022-08-21T08:31:07;9.93;;;3.75;;
40449;SDS011;41787;53.570;10.032;2022-08-21T08:33:33;8.45;;;2.17;;
40449;SDS011;41787;53.570;10.032;2022-08-21T08:35:59;7.55;;;2.00;;
40449;SDS011;41787;53.570;10.032;2022-08-21T08:38:25;7.75;;;1.67;;
40449;SDS011;41787;53.570;10.032;2022-08-21T08:41:01;8.30;;;1.85;;
40449;SDS011;41787;53.570;10.032;2022-08-21T08:43:28;7.43;;;1.48;;
40449;SDS011;41787;53.570;10.032;2022-08-21T08:45:56;7.43;;;1.83;;
40449;SDS011;41787;53.570;10.032;2022-08-21T08:48:41;4.80;;;1.92;;
40449;SDS011;41787;53.570;10.032;2022-08-21T08:51:13;10.48;;;2.92;;
40449;SDS011;41787;53.570;10.032;2022-08-21T08:54:24;7.85;;;2.00;;
40449;SDS011;41787;53.570;10.032;2022-08-21T08:56:33;8.48;;;2.00;;
40449;SDS011;41787;53.570;10.032;2022-08-21T08:59:05;6.15;;;1.95;;
40449;SDS011;41787;53.570;10.032;2022-08-21T09:01:33;7.38;;;2.20;;
40449;SDS011;41787;53.570;10.032;2022-08-21T09:03:59;8.63;;;2.08;;
40449;SDS011;41787;53.570;10.032;2022-08-21T09:06:33;12.68;;;2.05;;
40449;SDS011;41787;53.570;10.032;2022-08-21T09:09:15;11.00;;;1.55;;
40449;SDS011;41787;53.570;10.032;2022-08-21T09:12:02;5.68;;;1.75;;
40449;SDS011;41787;53.570;10.032;2022-08-21T09:14:47;8.45;;;2.17;;
40449;SDS011;41787;53.570;10.032;2022-08-21T09:24:47;8.25;;;2.00;;
40449;SDS011;41787;53.570;10.032;2022-08-21T09:27:16;8.60;;;1.88;;
40449;SDS011;41787;53.570;10.032;2022-08-21T09:29:43;6.20;;;1.83;;
40449;SDS011;41787;53.570;10.032;2022-08-21T09:32:15;10.20;;;1.98;;
40449;SDS011;41787;53.570;10.032;2022-08-21T09:34:54;7.07;;;2.25;;
40449;SDS011;41787;53.570;10.032;2022-08-21T09:37:20;7.13;;;2.05;;
40449;SDS011;41787;53.570;10.032;2022-08-21T09:39:45;11.10;;;2.28;;
40449;SDS011;41787;53.570;10.032;2022-08-21T09:42:11;7.25;;;1.92;;
40449;SDS011;41787;53.570;10.032;2022-08-21T09:44:46;12.48;;;2.25;;
40449;SDS011;41787;53.570;10.032;2022-08-21T09:47:12;4.70;;;1.65;;
40449;SDS011;41787;53.570;10.032;2022-08-21T09:49:39;6.40;;;2.00;;
40449;SDS011;41787;53.570;10.032;2022-08-21T09:52:15;10.98;;;1.90;;
40449;SDS011;41787;53.570;10.032;2022-08-21T09:54:41;12.02;;;2.20;;
40449;SDS011;41787;53.570;10.032;2022-08-21T09:59:55;9.50;;;2.03;;
40449;SDS011;41787;53.570;10.032;2022-08-21T10:02:23;14.05;;;2.15;;
40449;SDS011;41787;53.570;10.032;2022-08-21T10:04:53;15.25;;;2.60;;
40449;SDS011;41787;53.570;10.032;2022-08-21T10:07:20;4.40;;;1.80;;
40449;SDS011;41787;53.570;10.032;2022-08-21T10:09:57;7.03;;;2.17;;
40449;SDS011;41787;53.570;10.032;2022-08-21T10:12:25;7.47;;;1.90;;
40449;SDS011;41787;53.570;10.032;2022-08-21T10:17:36;7.22;;;2.00;;
40449;SDS011;41787;53.570;10.032;2022-08-21T10:20:15;10.73;;;2.33;;
40449;SDS011;41787;53.570;10.032;2022-08-21T10:28:14;7.72;;;2.10;;
40449;SDS011;41787;53.570;10.032;2022-08-21T10:30:48;5.25;;;1.80;;
40449;SDS011;41787;53.570;10.032;2022-08-21T10:35:51;10.52;;;1.73;;
40449;SDS011;41787;53.570;10.032;2022-08-21T10:46:27;7.43;;;2.08;;
40449;SDS011;41787;53.570;10.032;2022-08-21T10:54:11;5.50;;;1.50;;
40449;SDS011;41787;53.570;10.032;2022-08-21T10:56:40;8.05;;;1.85;;
40449;SDS011;41787;53.570;10.032;2022-08-21T11:06:45;5.10;;;1.60;;
40449;SDS011;41787;53.570;10.032;2022-08-21T11:09:13;5.40;;;1.58;;
40449;SDS011;41787;53.570;10.032;2022-08-21T11:11:45;7.75;;;1.60;;
40449;SDS011;41787;53.570;10.032;2022-08-21T11:14:29;6.90;;;1.88;;
40449;SDS011;41787;53.570;10.032;2022-08-21T11:17:01;14.27;;;5.32;;
40449;SDS011;41787;53.570;10.032;2022-08-21T11:19:30;8.05;;;1.63;;
40449;SDS011;41787;53.570;10.032;2022-08-21T11:22:06;5.78;;;1.88;;
40449;SDS011;41787;53.570;10.032;2022-08-21T11:25:08;7.65;;;1.83;;
40449;SDS011;41787;53.570;10.032;2022-08-21T11:27:27;7.85;;;1.80;;
40449;SDS011;41787;53.570;10.032;2022-08-21T11:29:55;9.95;;;1.70;;
40449;SDS011;41787;53.570;10.032;2022-08-21T11:35:19;7.28;;;1.25;;
40449;SDS011;41787;53.570;10.032;2022-08-21T11:37:51;3.22;;;1.30;;
40449;SDS011;41787;53.570;10.032;2022-08-21T11:40:44;3.45;;;1.23;;
40449;SDS011;41787;53.570;10.032;2022-08-21T11:43:20;3.97;;;1.13;;
40449;SDS011;41787;53.570;10.032;2022-08-21T11:45:53;4.72;;;1.15;;
40449;SDS011;41787;53.570;10.032;2022-08-21T11:51:04;5.10;;;1.48;;
40449;SDS011;41787;53.570;10.032;2022-08-21T11:56:04;4.88;;;1.20;;
40449;SDS011;41787;53.570;10.032;2022-08-21T12:01:07;4.93;;;1.48;;
40449;SDS011;41787;53.570;10.032;2022-08-21T12:03:35;3.30;;;1.30;;
40449;SDS011;41787;53.570;10.032;2022-08-21T12:06:04;5.28;;;1.10;;
40449;SDS011;41787;53.570;10.032;2022-08-21T12:08:32;4.28;;;1.10;;
40449;SDS011;41787;53.570;10.032;2022-08-21T12:11:03;3.35;;;1.10;;
40449;SDS011;41787;53.570;10.032;2022-08-21T12:13:31;3.13;;;1.40;;
40449;SDS011;41787;53.570;10.032;2022-08-21T12:18:35;3.85;;;1.00;;
40449;SDS011;41787;53.570;10.032;2022-08-21T12:21:17;2.40;;;1.02;;
40449;SDS011;41787;53.570;10.032;2022-08-21T12:23:46;5.50;;;1.38;;
40449;SDS011;41787;53.570;10.032;2022-08-21T12:28:39;8.15;;;1.25;;
40449;SDS011;41787;53.570;10.032;2022-08-21T12:31:16;3.45;;;1.30;;
40449;SDS011;41787;53.570;10.032;2022-08-21T12:33:43;5.88;;;1.30;;
40449;SDS011;41787;53.570;10.032;2022-08-21T12:36:17;6.13;;;1.45;;
40449;SDS011;41787;53.570;10.032;2022-08-21T12:38:54;2.67;;;1.10;;
40449;SDS011;41787;53.570;10.032;2022-08-21T12:41:21;3.40;;;1.10;;
40449;SDS011;41787;53.570;10.032;2022-08-21T12:43:55;4.15;;;1.10;;
40449;SDS011;41787;53.570;10.032;2022-08-21T12:46:28;5.80;;;1.20;;
40449;SDS011;41787;53.570;10.032;2022-08-21T12:48:56;6.90;;;1.42;;
40449;SDS011;41787;53.570;10.032;2022-08-21T12:51:26;5.65;;;1.00;;
40449;SDS011;41787;53.570;10.032;2022-08-21T12:53:55;6.63;;;1.63;;
40449;SDS011;41787;53.570;10.032;2022-08-21T12:56:29;3.88;;;1.50;;
40449;SDS011;41787;53.570;10.032;2022-08-21T12:58:56;3.80;;;1.13;;
40449;SDS011;41787;53.570;10.032;2022-08-21T13:03:51;6.20;;;0.77;;
40449;SDS011;41787;53.570;10.032;2022-08-21T13:06:19;4.68;;;0.80;;
40449;SDS011;41787;53.570;10.032;2022-08-21T13:08:46;1.48;;;0.63;;
40449;SDS011;41787;53.570;10.032;2022-08-21T13:11:13;2.97;;;1.00;;
40449;SDS011;41787;53.570;10.032;2022-08-21T13:13:40;2.85;;;1.17;;
40449;SDS011;41787;53.570;10.032;2022-08-21T13:16:07;3.83;;;1.23;;
40449;SDS011;41787;53.570;10.032;2022-08-21T13:18:34;3.05;;;0.90;;
40449;SDS011;41787;53.570;10.032;2022-08-21T13:21:12;1.90;;;0.90;;
40449;SDS011;41787;53.570;10.032;2022-08-21T13:23:38;2.63;;;0.98;;
40449;SDS011;41787;53.570;10.032;2022-08-21T13:26:15;2.13;;;1.02;;
40449;SDS011;41787;53.570;10.032;2022-08-21T13:28:41;4.55;;;1.10;;
40449;SDS011;41787;53.570;10.032;2022-08-21T13:31:12;3.55;;;1.17;;
40449;SDS011;41787;53.570;10.032;2022-08-21T13:33:38;4.75;;;1.00;;
40449;SDS011;41787;53.570;10.032;2022-08-21T13:38:33;3.75;;;0.80;;
40449;SDS011;41787;53.570;10.032;2022-08-21T13:41:03;4.97;;;1.25;;
40449;SDS011;41787;53.570;10.032;2022-08-21T13:43:34;2.15;;;0.77;;
40449;SDS011;41787;53.570;10.032;2022-08-21T13:46:01;5.68;;;0.90;;
40449;SDS011;41787;53.570;10.032;2022-08-21T13:48:28;3.90;;;0.80;;
40449;SDS011;41787;53.570;10.032;2022-08-21T13:50:55;5.25;;;1.75;;
40449;SDS011;41787;53.570;10.032;2022-08-21T13:53:32;3.03;;;0.82;;
40449;SDS011;41787;53.570;10.032;2022-08-21T13:55:59;2.15;;;0.90;;
40449;SDS011;41787;53.570;10.032;2022-08-21T13:58:27;2.92;;;0.75;;
40449;SDS011;41787;53.570;10.032;2022-08-21T14:00:53;1.95;;;0.75;;
40449;SDS011;41787;53.570;10.032;2022-08-21T14:03:26;3.05;;;0.88;;
40449;SDS011;41787;53.570;10.032;2022-08-21T14:05:52;3.33;;;0.90;;
40449;SDS011;41787;53.570;10.032;2022-08-21T14:08:32;5.20;;;1.27;;
40449;SDS011;41787;53.570;10.032;2022-08-21T14:10:59;2.40;;;1.10;;
40449;SDS011;41787;53.570;10.032;2022-08-21T14:16:03;1.70;;;0.50;;
40449;SDS011;41787;53.570;10.032;2022-08-21T14:18:42;3.75;;;0.98;;
40449;SDS011;41787;53.570;10.032;2022-08-21T14:21:08;3.40;;;1.00;;
40449;SDS011;41787;53.570;10.032;2022-08-21T14:23:35;2.22;;;0.80;;
40449;SDS011;41787;53.570;10.032;2022-08-21T14:26:02;3.30;;;1.23;;
40449;SDS011;41787;53.570;10.032;2022-08-21T14:28:38;3.95;;;0.85;;
40449;SDS011;41787;53.570;10.032;2022-08-21T14:31:11;3.55;;;0.95;;
40449;SDS011;41787;53.570;10.032;2022-08-21T14:33:38;2.72;;;1.00;;
40449;SDS011;41787;53.570;10.032;2022-08-21T14:36:05;4.93;;;1.05;;
40449;SDS011;41787;53.570;10.032;2022-08-21T14:38:31;2.10;;;0.85;;
40449;SDS011;41787;53.570;10.032;2022-08-21T14:40:58;2.40;;;0.70;;
40449;SDS011;41787;53.570;10.032;2022-08-21T14:43:25;4.97;;;1.23;;
40449;SDS011;41787;53.570;10.032;2022-08-21T14:45:52;4.18;;;0.88;;
40449;SDS011;41787;53.570;10.032;2022-08-21T14:48:18;1.27;;;0.80;;
40449;SDS011;41787;53.570;10.032;2022-08-21T14:50:44;2.70;;;1.13;;
40449;SDS011;41787;53.570;10.032;2022-08-21T14:53:10;6.55;;;0.95;;
40449;SDS011;41787;53.570;10.032;2022-08-21T14:55:36;2.42;;;0.77;;
40449;SDS011;41787;53.570;10.032;2022-08-21T14:58:23;4.55;;;1.17;;
40449;SDS011;41787;53.570;10.032;2022-08-21T15:00:50;2.90;;;1.10;;
40449;SDS011;41787;53.570;10.032;2022-08-21T15:03:17;3.90;;;0.80;;
40449;SDS011;41787;53.570;10.032;2022-08-21T15:05:43;3.58;;;0.82;;
40449;SDS011;41787;53.570;10.032;2022-08-21T15:08:09;2.03;;;0.85;;
40449;SDS011;41787;53.570;10.032;2022-08-21T15:10:35;4.60;;;1.00;;
40449;SDS011;41787;53.570;10.032;2022-08-21T15:13:01;5.15;;;0.95;;
40449;SDS011;41787;53.570;10.032;2022-08-21T15:15:29;4.38;;;1.10;;
40449;SDS011;41787;53.570;10.032;2022-08-21T15:17:55;2.63;;;1.15;;
40449;SDS011;41787;53.570;10.032;2022-08-21T15:20:21;4.90;;;1.08;;
40449;SDS011;41787;53.570;10.032;2022-08-21T15:22:47;2.58;;;0.90;;
40449;SDS011;41787;53.570;10.032;2022-08-21T15:25:13;3.85;;;1.10;;
40449;SDS011;41787;53.570;10.032;2022-08-21T15:27:39;5.40;;;0.95;;
40449;SDS011;41787;53.570;10.032;2022-08-21T15:30:05;7.90;;;0.98;;
40449;SDS011;41787;53.570;10.032;2022-08-21T15:32:31;6.88;;;1.40;;
40449;SDS011;41787;53.570;10.032;2022-08-21T15:34:57;3.38;;;0.75;;
40449;SDS011;41787;53.570;10.032;2022-08-21T15:37:24;5.07;;;0.80;;
40449;SDS011;41787;53.570;10.032;2022-08-21T15:39:50;3.63;;;1.15;;
40449;SDS011;41787;53.570;10.032;2022-08-21T15:42:17;3.22;;;1.00;;
40449;SDS011;41787;53.570;10.032;2022-08-21T15:44:43;3.22;;;1.02;;
40449;SDS011;41787;53.570;10.032;2022-08-21T15:47:11;4.70;;;1.45;;
40449;SDS011;41787;53.570;10.032;2022-08-21T15:49:38;4.53;;;1.30;;